createdAt,value
2018-02-11T00:00:01.593Z,982.74
2018-02-11T00:01:08.368Z,982.74
2018-02-11T00:02:15.097Z,982.71
2018-02-11T00:03:21.793Z,982.60
2018-02-11T00:04:28.543Z,982.68
2018-02-11T00:05:35.252Z,982.61
2018-02-11T00:06:42.222Z,982.57
2018-02-11T00:07:49.023Z,982.58
2018-02-11T00:08:55.728Z,982.61
2018-02-11T00:10:02.436Z,982.60
2018-02-11T00:11:09.107Z,982.42
2018-02-11T00:12:15.812Z,982.50
2018-02-11T00:13:22.596Z,982.63
2018-02-11T00:14:29.331Z,982.42
2018-02-11T00:15:36.049Z,982.50
2018-02-11T00:16:42.768Z,982.48
2018-02-11T00:17:49.484Z,982.48
2018-02-11T00:18:56.166Z,982.47
2018-02-11T00:20:02.870Z,982.41
2018-02-11T00:21:09.550Z,982.40
2018-02-11T00:22:16.231Z,982.30
2018-02-11T00:23:23.039Z,982.30
2018-02-11T00:24:29.716Z,982.23
2018-02-11T00:25:36.420Z,982.23
2018-02-11T00:26:43.123Z,982.22
2018-02-11T00:27:49.831Z,982.19
2018-02-11T00:28:56.515Z,982.19
2018-02-11T00:30:03.199Z,982.18
2018-02-11T00:31:09.875Z,982.19
2018-02-11T00:32:16.547Z,982.17
2018-02-11T00:33:23.387Z,982.18
2018-02-11T00:34:30.063Z,982.09
2018-02-11T00:35:36.736Z,982.09
2018-02-11T00:36:43.924Z,982.12
2018-02-11T00:37:50.672Z,982.11
2018-02-11T00:38:57.423Z,982.08
2018-02-11T00:40:04.094Z,981.99
2018-02-11T00:41:10.897Z,982.13
2018-02-11T00:42:17.598Z,982.03
2018-02-11T00:43:24.303Z,982.14
2018-02-11T00:44:31.311Z,982.10
2018-02-11T00:45:38.006Z,982.04
2018-02-11T00:46:44.711Z,982.00
2018-02-11T00:47:51.435Z,982.01
2018-02-11T00:48:58.139Z,982.07
2018-02-11T00:50:04.847Z,981.88
2018-02-11T00:51:11.515Z,981.96
2018-02-11T00:52:18.283Z,981.85
2018-02-11T00:53:25.016Z,981.89
2018-02-11T00:54:31.723Z,981.92
2018-02-11T00:55:38.436Z,981.91
2018-02-11T00:56:45.137Z,981.87
2018-02-11T00:57:51.838Z,981.84
2018-02-11T00:58:58.606Z,981.84
2018-02-11T01:00:05.452Z,981.78
2018-02-11T01:01:12.227Z,981.92
2018-02-11T01:02:18.935Z,981.88
2018-02-11T01:03:25.787Z,981.90
2018-02-11T01:04:33.001Z,981.88
2018-02-11T01:05:39.711Z,981.91
2018-02-11T01:06:46.433Z,981.78
2018-02-11T01:07:53.169Z,981.80
2018-02-11T01:08:59.857Z,981.73
2018-02-11T01:10:06.664Z,981.66
2018-02-11T01:11:13.446Z,981.69
2018-02-11T01:12:20.104Z,981.56
2018-02-11T01:13:26.827Z,981.52
2018-02-11T01:14:33.491Z,981.50
2018-02-11T01:15:40.211Z,981.44
2018-02-11T01:16:46.999Z,981.41
2018-02-11T01:17:53.659Z,981.39
2018-02-11T01:19:00.832Z,981.32
2018-02-11T01:20:07.559Z,981.35
2018-02-11T01:21:14.275Z,981.35
2018-02-11T01:22:20.958Z,981.34
2018-02-11T01:23:28.132Z,981.28
2018-02-11T01:24:34.804Z,981.28
2018-02-11T01:25:41.503Z,981.24
2018-02-11T01:26:48.301Z,981.24
2018-02-11T01:27:54.955Z,981.19
2018-02-11T01:29:02.104Z,981.14
2018-02-11T01:30:08.807Z,981.19
2018-02-11T01:31:15.511Z,981.13
2018-02-11T01:32:22.225Z,981.12
2018-02-11T01:33:29.003Z,981.06
2018-02-11T01:34:35.711Z,981.08
2018-02-11T01:35:42.483Z,981.14
2018-02-11T01:36:49.156Z,981.12
2018-02-11T01:37:55.853Z,981.04
2018-02-11T01:39:02.526Z,981.03
2018-02-11T01:40:09.279Z,981.01
2018-02-11T01:41:15.999Z,980.93
2018-02-11T01:42:22.975Z,980.85
2018-02-11T01:43:29.695Z,980.87
2018-02-11T01:44:36.402Z,980.88
2018-02-11T01:45:43.091Z,980.82
2018-02-11T01:46:50.008Z,980.74
2018-02-11T01:47:56.711Z,980.77
2018-02-11T01:49:03.450Z,980.77
2018-02-11T01:50:10.135Z,980.79
2018-02-11T01:51:17.298Z,980.71
2018-02-11T01:52:24.107Z,980.65
2018-02-11T01:53:30.800Z,980.71
2018-02-11T01:54:37.504Z,980.60
2018-02-11T01:55:44.219Z,980.61
2018-02-11T01:56:50.912Z,980.63
2018-02-11T01:57:57.640Z,980.51
2018-02-11T01:59:04.307Z,980.43
2018-02-11T02:00:11.083Z,980.43
2018-02-11T02:01:17.767Z,980.42
2018-02-11T02:02:24.463Z,980.40
2018-02-11T02:03:31.439Z,980.39
2018-02-11T02:04:38.167Z,980.38
2018-02-11T02:05:44.851Z,980.29
2018-02-11T02:06:51.599Z,980.20
2018-02-11T02:07:58.361Z,980.22
2018-02-11T02:09:05.083Z,980.21
2018-02-11T02:10:11.894Z,980.23
2018-02-11T02:11:18.563Z,980.25
2018-02-11T02:12:25.728Z,980.09
2018-02-11T02:13:32.439Z,980.08
2018-02-11T02:14:39.401Z,980.18
2018-02-11T02:15:46.132Z,980.10
2018-02-11T02:16:52.821Z,980.09
2018-02-11T02:17:59.691Z,980.07
2018-02-11T02:19:06.380Z,980.11
2018-02-11T02:20:13.066Z,980.13
2018-02-11T02:21:19.755Z,980.02
2018-02-11T02:22:26.535Z,980.02
2018-02-11T02:23:33.246Z,979.97
2018-02-11T02:24:39.975Z,980.01
2018-02-11T02:25:46.660Z,979.95
2018-02-11T02:26:53.379Z,979.96
2018-02-11T02:28:00.081Z,979.99
2018-02-11T02:29:06.977Z,979.92
2018-02-11T02:30:13.655Z,979.90
2018-02-11T02:31:20.527Z,979.91
2018-02-11T02:32:27.233Z,979.99
2018-02-11T02:33:33.948Z,979.87
2018-02-11T02:34:40.720Z,979.88
2018-02-11T02:35:47.419Z,979.81
2018-02-11T02:36:54.233Z,979.68
2018-02-11T02:38:00.939Z,979.58
2018-02-11T02:39:07.636Z,979.67
2018-02-11T02:40:14.455Z,979.47
2018-02-11T02:41:21.143Z,979.37
2018-02-11T02:42:27.835Z,979.45
2018-02-11T02:43:34.544Z,979.46
2018-02-11T02:44:41.283Z,979.50
2018-02-11T02:45:48.178Z,979.48
2018-02-11T02:46:54.954Z,979.52
2018-02-11T02:48:01.636Z,979.47
2018-02-11T02:49:08.345Z,979.44
2018-02-11T02:50:15.063Z,979.44
2018-02-11T02:51:21.743Z,979.45
2018-02-11T02:52:28.532Z,979.45
2018-02-11T02:53:35.232Z,979.47
2018-02-11T02:54:41.926Z,979.46
2018-02-11T02:55:48.647Z,979.37
2018-02-11T02:56:55.372Z,979.35
2018-02-11T02:58:02.116Z,979.37
2018-02-11T02:59:08.868Z,979.40
2018-02-11T03:00:15.588Z,979.29
2018-02-11T03:01:22.396Z,979.23
2018-02-11T03:02:29.123Z,979.13
2018-02-11T03:03:35.912Z,979.13
2018-02-11T03:04:42.591Z,979.27
2018-02-11T03:05:49.331Z,979.20
2018-02-11T03:06:56.126Z,979.00
2018-02-11T03:08:02.836Z,979.05
2018-02-11T03:09:09.728Z,979.07
2018-02-11T03:10:16.410Z,978.94
2018-02-11T03:11:28.295Z,978.91
2018-02-11T03:12:30.086Z,978.91
2018-02-11T03:13:36.807Z,978.94
2018-02-11T03:14:43.491Z,978.93
2018-02-11T03:15:50.171Z,978.91
2018-02-11T03:16:56.907Z,978.91
2018-02-11T03:18:03.595Z,978.86
2018-02-11T03:19:10.382Z,978.75
2018-02-11T03:20:17.112Z,978.84
2018-02-11T03:21:23.791Z,978.70
2018-02-11T03:22:30.541Z,978.68
2018-02-11T03:23:37.268Z,978.64
2018-02-11T03:24:44.004Z,978.71
2018-02-11T03:25:50.727Z,978.68
2018-02-11T03:26:57.482Z,978.68
2018-02-11T03:28:04.190Z,978.57
2018-02-11T03:29:10.903Z,978.62
2018-02-11T03:30:17.624Z,978.57
2018-02-11T03:31:24.420Z,978.59
2018-02-11T03:32:31.224Z,978.52
2018-02-11T03:33:37.950Z,978.55
2018-02-11T03:34:44.662Z,978.50
2018-02-11T03:35:51.392Z,978.52
2018-02-11T03:36:58.085Z,978.51
2018-02-11T03:38:04.891Z,978.46
2018-02-11T03:39:11.614Z,978.39
2018-02-11T03:40:18.311Z,978.40
2018-02-11T03:41:25.115Z,978.41
2018-02-11T03:42:31.844Z,978.50
2018-02-11T03:43:38.543Z,978.42
2018-02-11T03:44:45.304Z,978.25
2018-02-11T03:45:52.027Z,978.25
2018-02-11T03:46:58.787Z,978.31
2018-02-11T03:48:05.512Z,978.22
2018-02-11T03:49:12.230Z,978.20
2018-02-11T03:50:18.999Z,978.20
2018-02-11T03:51:25.709Z,978.17
2018-02-11T03:52:32.449Z,978.20
2018-02-11T03:53:39.237Z,978.22
2018-02-11T03:54:45.943Z,978.16
2018-02-11T03:55:52.671Z,978.17
2018-02-11T03:56:59.363Z,978.12
2018-02-11T03:58:06.088Z,978.05
2018-02-11T03:59:12.832Z,978.05
2018-02-11T04:00:19.636Z,977.91
2018-02-11T04:01:26.356Z,977.87
2018-02-11T04:02:33.051Z,977.90
2018-02-11T04:03:39.791Z,977.83
2018-02-11T04:04:46.552Z,977.83
2018-02-11T04:05:53.628Z,977.76
2018-02-11T04:07:00.350Z,977.86
2018-02-11T04:08:07.065Z,977.79
2018-02-11T04:09:13.813Z,977.78
2018-02-11T04:10:20.511Z,977.79
2018-02-11T04:11:27.204Z,977.79
2018-02-11T04:12:33.947Z,977.76
2018-02-11T04:13:40.638Z,977.67
2018-02-11T04:14:47.374Z,977.60
2018-02-11T04:15:54.171Z,977.62
2018-02-11T04:17:00.867Z,977.62
2018-02-11T04:18:07.603Z,977.62
2018-02-11T04:19:14.300Z,977.53
2018-02-11T04:20:21.028Z,977.62
2018-02-11T04:21:27.844Z,977.50
2018-02-11T04:22:34.635Z,977.57
2018-02-11T04:23:41.419Z,977.54
2018-02-11T04:24:48.207Z,977.47
2018-02-11T04:25:54.951Z,977.45
2018-02-11T04:27:01.683Z,977.45
2018-02-11T04:28:08.475Z,977.49
2018-02-11T04:29:15.341Z,977.38
2018-02-11T04:30:22.067Z,977.32
2018-02-11T04:31:28.798Z,977.30
2018-02-11T04:32:35.470Z,977.31
2018-02-11T04:33:42.163Z,977.34
2018-02-11T04:34:48.898Z,977.28
2018-02-11T04:35:55.582Z,977.22
2018-02-11T04:37:02.296Z,977.21
2018-02-11T04:38:09.098Z,977.27
2018-02-11T04:39:15.803Z,977.20
2018-02-11T04:40:22.487Z,977.27
2018-02-11T04:41:29.292Z,977.18
2018-02-11T04:42:36.020Z,977.24
2018-02-11T04:43:42.752Z,977.28
2018-02-11T04:44:49.535Z,977.26
2018-02-11T04:45:56.323Z,977.17
2018-02-11T04:47:03.059Z,977.06
2018-02-11T04:48:09.755Z,977.17
2018-02-11T04:49:16.493Z,977.07
2018-02-11T04:50:23.207Z,977.09
2018-02-11T04:51:29.898Z,977.03
2018-02-11T04:52:36.702Z,977.05
2018-02-11T04:53:43.371Z,977.06
2018-02-11T04:54:50.087Z,976.99
2018-02-11T04:55:56.803Z,977.02
2018-02-11T04:57:03.513Z,976.90
2018-02-11T04:58:10.244Z,976.89
2018-02-11T04:59:17.047Z,976.92
2018-02-11T05:00:23.743Z,976.87
2018-02-11T05:01:30.454Z,976.96
2018-02-11T05:02:37.212Z,976.89
2018-02-11T05:03:43.933Z,976.84
2018-02-11T05:04:50.639Z,976.96
2018-02-11T05:05:57.299Z,976.97
2018-02-11T05:07:04.082Z,976.81
2018-02-11T05:08:10.804Z,976.84
2018-02-11T05:09:17.483Z,976.82
2018-02-11T05:10:24.176Z,976.75
2018-02-11T05:11:30.892Z,976.67
2018-02-11T05:12:37.620Z,976.71
2018-02-11T05:13:44.443Z,976.75
2018-02-11T05:14:51.119Z,976.72
2018-02-11T05:15:57.821Z,976.74
2018-02-11T05:17:04.836Z,976.68
2018-02-11T05:18:11.532Z,976.70
2018-02-11T05:19:18.336Z,976.66
2018-02-11T05:20:25.055Z,976.59
2018-02-11T05:21:31.931Z,976.64
2018-02-11T05:22:38.604Z,976.59
2018-02-11T05:23:45.324Z,976.59
2018-02-11T05:24:52.042Z,976.58
2018-02-11T05:25:58.808Z,976.61
2018-02-11T05:27:05.555Z,976.52
2018-02-11T05:28:12.267Z,976.54
2018-02-11T05:29:18.980Z,976.46
2018-02-11T05:30:25.728Z,976.45
2018-02-11T05:31:32.788Z,976.43
2018-02-11T05:32:39.487Z,976.43
2018-02-11T05:33:46.207Z,976.45
2018-02-11T05:34:52.915Z,976.42
2018-02-11T05:35:59.703Z,976.50
2018-02-11T05:37:06.534Z,976.43
2018-02-11T05:38:13.232Z,976.51
2018-02-11T05:39:19.971Z,976.52
2018-02-11T05:40:26.696Z,976.47
2018-02-11T05:41:33.399Z,976.48
2018-02-11T05:42:40.108Z,976.41
2018-02-11T05:43:46.803Z,976.46
2018-02-11T05:44:53.531Z,976.44
2018-02-11T05:46:00.320Z,976.41
2018-02-11T05:47:07.100Z,976.40
2018-02-11T05:48:13.782Z,976.42
2018-02-11T05:49:20.507Z,976.37
2018-02-11T05:50:27.340Z,976.34
2018-02-11T05:51:34.176Z,976.43
2018-02-11T05:52:40.948Z,976.37
2018-02-11T05:53:47.696Z,976.32
2018-02-11T05:54:54.400Z,976.33
2018-02-11T05:56:01.195Z,976.36
2018-02-11T05:57:07.962Z,976.31
2018-02-11T05:58:14.672Z,976.34
2018-02-11T05:59:21.406Z,976.28
2018-02-11T06:00:28.095Z,976.23
2018-02-11T06:01:34.800Z,976.20
2018-02-11T06:02:41.535Z,976.25
2018-02-11T06:03:48.227Z,976.22
2018-02-11T06:04:55.056Z,976.21
2018-02-11T06:06:01.815Z,976.13
2018-02-11T06:07:08.650Z,976.15
2018-02-11T06:08:15.329Z,976.19
2018-02-11T06:09:22.023Z,976.28
2018-02-11T06:10:28.772Z,976.09
2018-02-11T06:11:35.684Z,976.16
2018-02-11T06:12:42.487Z,976.21
2018-02-11T06:13:49.336Z,976.09
2018-02-11T06:14:56.100Z,976.18
2018-02-11T06:16:02.816Z,976.14
2018-02-11T06:17:09.567Z,976.14
2018-02-11T06:18:16.565Z,976.13
2018-02-11T06:19:23.419Z,976.13
2018-02-11T06:20:30.507Z,976.03
2018-02-11T06:21:37.427Z,976.10
2018-02-11T06:22:44.499Z,976.09
2018-02-11T06:23:51.359Z,976.07
2018-02-11T06:24:58.181Z,976.16
2018-02-11T06:26:05.091Z,976.08
2018-02-11T06:27:11.899Z,976.09
2018-02-11T06:28:18.829Z,976.09
2018-02-11T06:29:25.544Z,976.14
2018-02-11T06:30:32.343Z,976.12
2018-02-11T06:31:39.035Z,976.11
2018-02-11T06:32:45.919Z,976.20
2018-02-11T06:33:52.727Z,976.14
2018-02-11T06:34:59.488Z,976.17
2018-02-11T06:36:06.198Z,976.07
2018-02-11T06:37:12.999Z,976.00
2018-02-11T06:38:19.710Z,976.15
2018-02-11T06:39:26.639Z,976.10
2018-02-11T06:40:33.426Z,976.12
2018-02-11T06:41:40.139Z,976.12
2018-02-11T06:42:46.932Z,976.09
2018-02-11T06:43:53.672Z,976.06
2018-02-11T06:45:00.528Z,975.96
2018-02-11T06:46:07.265Z,976.00
2018-02-11T06:47:13.979Z,976.07
2018-02-11T06:48:20.703Z,976.01
2018-02-11T06:49:27.575Z,976.09
2018-02-11T06:50:34.288Z,975.99
2018-02-11T06:51:41.063Z,976.00
2018-02-11T06:52:47.774Z,975.98
2018-02-11T06:53:54.472Z,976.06
2018-02-11T06:55:01.327Z,975.91
2018-02-11T06:56:08.052Z,976.06
2018-02-11T06:57:14.784Z,975.96
2018-02-11T06:58:21.527Z,975.92
2018-02-11T06:59:28.361Z,976.14
2018-02-11T07:00:35.048Z,975.95
2018-02-11T07:01:41.761Z,975.93
2018-02-11T07:02:48.630Z,975.98
2018-02-11T07:03:55.435Z,975.91
2018-02-11T07:05:02.157Z,975.92
2018-02-11T07:06:08.914Z,975.88
2018-02-11T07:07:15.698Z,975.93
2018-02-11T07:08:22.546Z,975.95
2018-02-11T07:09:29.292Z,975.92
2018-02-11T07:10:36.003Z,975.91
2018-02-11T07:11:42.874Z,975.90
2018-02-11T07:12:49.651Z,975.87
2018-02-11T07:13:57.039Z,975.84
2018-02-11T07:15:03.896Z,975.81
2018-02-11T07:16:10.716Z,975.84
2018-02-11T07:17:17.696Z,975.79
2018-02-11T07:18:24.420Z,975.84
2018-02-11T07:19:31.116Z,975.80
2018-02-11T07:20:37.907Z,975.81
2018-02-11T07:21:44.653Z,975.77
2018-02-11T07:22:51.543Z,975.80
2018-02-11T07:23:58.311Z,975.84
2018-02-11T07:25:05.045Z,975.80
2018-02-11T07:26:11.835Z,975.84
2018-02-11T07:27:18.630Z,975.75
2018-02-11T07:28:25.399Z,975.77
2018-02-11T07:29:32.128Z,975.82
2018-02-11T07:30:39.127Z,975.74
2018-02-11T07:31:45.892Z,975.83
2018-02-11T07:32:52.723Z,975.84
2018-02-11T07:33:59.508Z,975.82
2018-02-11T07:35:06.255Z,975.83
2018-02-11T07:36:13.004Z,975.90
2018-02-11T07:37:19.824Z,975.82
2018-02-11T07:38:26.624Z,975.85
2018-02-11T07:39:33.413Z,975.88
2018-02-11T07:40:40.103Z,975.83
2018-02-11T07:41:46.887Z,975.77
2018-02-11T07:42:53.723Z,975.76
2018-02-11T07:44:00.412Z,975.87
2018-02-11T07:45:07.163Z,975.91
2018-02-11T07:46:14.311Z,975.84
2018-02-11T07:47:21.123Z,975.91
2018-02-11T07:48:27.844Z,975.83
2018-02-11T07:49:34.633Z,975.80
2018-02-11T07:50:41.375Z,975.92
2018-02-11T07:51:48.228Z,975.82
2018-02-11T07:52:55.909Z,975.85
2018-02-11T07:54:02.160Z,975.84
2018-02-11T07:55:08.757Z,975.83
2018-02-11T07:56:15.760Z,975.90
2018-02-11T07:57:22.491Z,975.91
2018-02-11T07:58:29.340Z,975.93
2018-02-11T07:59:36.103Z,975.90
2018-02-11T08:00:42.968Z,975.86
2018-02-11T08:01:49.816Z,975.86
2018-02-11T08:02:56.547Z,975.91
2018-02-11T08:04:03.583Z,975.84
2018-02-11T08:05:10.343Z,975.86
2018-02-11T08:06:17.127Z,975.95
2018-02-11T08:07:23.882Z,975.82
2018-02-11T08:08:30.663Z,975.85
2018-02-11T08:09:37.403Z,975.78
2018-02-11T08:10:44.204Z,975.85
2018-02-11T08:11:51.051Z,975.86
2018-02-11T08:12:57.812Z,975.79
2018-02-11T08:14:04.716Z,975.84
2018-02-11T08:15:11.532Z,975.78
2018-02-11T08:16:18.296Z,975.82
2018-02-11T08:17:25.090Z,975.88
2018-02-11T08:18:31.893Z,975.93
2018-02-11T08:19:38.657Z,975.88
2018-02-11T08:20:45.525Z,975.91
2018-02-11T08:21:52.309Z,975.89
2018-02-11T08:22:59.168Z,975.89
2018-02-11T08:24:05.914Z,975.88
2018-02-11T08:25:12.699Z,975.88
2018-02-11T08:26:19.526Z,975.91
2018-02-11T08:27:26.347Z,975.83
2018-02-11T08:28:33.231Z,975.86
2018-02-11T08:29:40.084Z,975.74
2018-02-11T08:30:47.164Z,975.78
2018-02-11T08:31:53.974Z,975.73
2018-02-11T08:33:00.690Z,975.74
2018-02-11T08:34:07.552Z,975.74
2018-02-11T08:35:14.335Z,975.80
2018-02-11T08:36:21.164Z,975.85
2018-02-11T08:37:27.891Z,975.82
2018-02-11T08:38:34.807Z,975.82
2018-02-11T08:39:41.543Z,975.87
2018-02-11T08:40:48.299Z,975.90
2018-02-11T08:41:55.231Z,975.86
2018-02-11T08:43:02.004Z,975.79
2018-02-11T08:44:08.778Z,975.84
2018-02-11T08:45:15.648Z,975.81
2018-02-11T08:46:22.512Z,975.82
2018-02-11T08:47:29.275Z,975.78
2018-02-11T08:48:36.160Z,975.83
2018-02-11T08:49:42.973Z,975.79
2018-02-11T08:50:49.746Z,975.78
2018-02-11T08:51:56.533Z,975.86
2018-02-11T08:53:03.303Z,975.82
2018-02-11T08:54:10.356Z,975.72
2018-02-11T08:55:17.296Z,975.80
2018-02-11T08:56:24.705Z,975.71
2018-02-11T08:57:30.987Z,975.75
2018-02-11T08:58:37.781Z,975.72
2018-02-11T08:59:44.527Z,975.75
2018-02-11T09:00:51.332Z,975.66
2018-02-11T09:01:58.098Z,975.66
2018-02-11T09:03:04.852Z,975.71
2018-02-11T09:04:11.620Z,975.70
2018-02-11T09:05:18.640Z,975.66
2018-02-11T09:06:25.474Z,975.61
2018-02-11T09:07:32.271Z,975.67
2018-02-11T09:08:39.031Z,975.70
2018-02-11T09:09:45.865Z,975.68
2018-02-11T09:10:52.897Z,975.71
2018-02-11T09:11:59.484Z,975.71
2018-02-11T09:13:06.316Z,975.75
2018-02-11T09:14:13.105Z,975.81
2018-02-11T09:15:19.948Z,975.74
2018-02-11T09:16:26.777Z,975.63
2018-02-11T09:17:33.487Z,975.64
2018-02-11T09:18:40.222Z,975.63
2018-02-11T09:19:46.967Z,975.70
2018-02-11T09:20:53.835Z,975.65
2018-02-11T09:22:00.643Z,975.70
2018-02-11T09:23:07.450Z,975.76
2018-02-11T09:24:14.223Z,975.81
2018-02-11T09:25:21.032Z,975.76
2018-02-11T09:26:27.762Z,975.69
2018-02-11T09:27:34.478Z,975.78
2018-02-11T09:28:41.236Z,975.73
2018-02-11T09:29:47.943Z,975.77
2018-02-11T09:30:54.659Z,975.79
2018-02-11T09:32:01.391Z,975.81
2018-02-11T09:33:08.238Z,975.81
2018-02-11T09:34:15.087Z,975.85
2018-02-11T09:35:22.674Z,975.86
2018-02-11T09:36:28.747Z,975.86
2018-02-11T09:37:35.488Z,975.84
2018-02-11T09:38:42.227Z,975.79
2018-02-11T09:39:49.014Z,975.70
2018-02-11T09:40:55.791Z,975.79
2018-02-11T09:42:02.611Z,975.70
2018-02-11T09:43:09.379Z,975.70
2018-02-11T09:44:16.199Z,975.72
2018-02-11T09:45:22.987Z,975.67
2018-02-11T09:46:29.752Z,975.75
2018-02-11T09:47:36.602Z,975.73
2018-02-11T09:48:43.368Z,975.81
2018-02-11T09:49:50.203Z,975.70
2018-02-11T09:50:56.918Z,975.68
2018-02-11T09:52:03.841Z,975.76
2018-02-11T09:53:10.593Z,975.81
2018-02-11T09:54:17.367Z,975.79
2018-02-11T09:55:24.177Z,975.85
2018-02-11T09:56:30.931Z,975.73
2018-02-11T09:57:37.712Z,975.76
2018-02-11T09:58:44.489Z,975.83
2018-02-11T09:59:51.336Z,975.72
2018-02-11T10:00:58.134Z,975.75
2018-02-11T10:02:04.905Z,975.80
2018-02-11T10:03:11.831Z,975.74
2018-02-11T10:04:18.627Z,975.79
2018-02-11T10:05:25.495Z,975.78
2018-02-11T10:06:32.260Z,975.76
2018-02-11T10:07:39.039Z,975.71
2018-02-11T10:08:45.793Z,975.72
2018-02-11T10:09:53.044Z,975.77
2018-02-11T10:10:59.811Z,975.71
2018-02-11T10:12:06.528Z,975.71
2018-02-11T10:13:13.707Z,975.74
2018-02-11T10:14:20.548Z,975.74
2018-02-11T10:15:27.384Z,975.85
2018-02-11T10:16:34.131Z,975.72
2018-02-11T10:17:41.012Z,975.79
2018-02-11T10:18:47.960Z,975.75
2018-02-11T10:19:54.688Z,975.79
2018-02-11T10:21:01.479Z,975.78
2018-02-11T10:22:08.283Z,975.71
2018-02-11T10:23:15.083Z,975.75
2018-02-11T10:24:22.172Z,975.73
2018-02-11T10:25:29.068Z,975.74
2018-02-11T10:26:35.936Z,975.76
2018-02-11T10:27:43.022Z,975.80
2018-02-11T10:28:50.252Z,975.74
2018-02-11T10:29:57.249Z,975.80
2018-02-11T10:31:03.960Z,975.78
2018-02-11T10:32:10.908Z,975.71
2018-02-11T10:33:17.852Z,975.78
2018-02-11T10:34:24.720Z,975.72
2018-02-11T10:35:31.516Z,975.69
2018-02-11T10:36:38.497Z,975.76
2018-02-11T10:37:45.396Z,975.77
2018-02-11T10:38:52.311Z,975.77
2018-02-11T10:39:59.406Z,975.80
2018-02-11T10:41:06.228Z,975.79
2018-02-11T10:42:15.662Z,975.83
2018-02-11T10:43:20.227Z,975.82
2018-02-11T10:44:27.148Z,975.80
2018-02-11T10:45:34.465Z,975.82
2018-02-11T10:46:40.888Z,975.84
2018-02-11T10:47:47.700Z,975.88
2018-02-11T10:48:54.481Z,975.76
2018-02-11T10:50:01.349Z,975.75
2018-02-11T10:51:08.263Z,975.78
2018-02-11T10:52:15.192Z,975.82
2018-02-11T10:53:22.155Z,975.75
2018-02-11T10:54:28.929Z,975.79
2018-02-11T10:55:36.099Z,975.83
2018-02-11T10:56:43.037Z,975.76
2018-02-11T10:57:49.979Z,975.83
2018-02-11T10:58:57.099Z,975.90
2018-02-11T11:00:04.042Z,975.76
2018-02-11T11:01:11.163Z,975.71
2018-02-11T11:02:18.176Z,975.71
2018-02-11T11:03:24.816Z,975.76
2018-02-11T11:04:31.868Z,975.70
2018-02-11T11:05:38.903Z,975.74
2018-02-11T11:06:46.052Z,975.67
2018-02-11T11:07:53.204Z,975.73
2018-02-11T11:09:00.098Z,975.79
2018-02-11T11:10:07.004Z,975.78
2018-02-11T11:11:13.972Z,975.75
2018-02-11T11:12:20.802Z,975.70
2018-02-11T11:13:27.852Z,975.71
2018-02-11T11:14:37.008Z,975.64
2018-02-11T11:15:42.913Z,975.71
2018-02-11T11:16:48.708Z,975.62
2018-02-11T11:17:55.612Z,975.57
2018-02-11T11:19:02.424Z,975.64
2018-02-11T11:20:09.252Z,975.61
2018-02-11T11:21:16.033Z,975.63
2018-02-11T11:22:22.944Z,975.59
2018-02-11T11:23:29.720Z,975.59
2018-02-11T11:25:43.320Z,975.65
2018-02-11T11:26:50.367Z,975.60
2018-02-11T11:27:57.292Z,975.58
2018-02-11T11:29:04.230Z,975.56
2018-02-11T11:30:11.250Z,975.57
2018-02-11T11:31:18.488Z,975.52
2018-02-11T11:32:24.812Z,975.61
2018-02-11T11:33:31.593Z,975.49
2018-02-11T11:34:38.424Z,975.55
2018-02-11T11:35:45.326Z,975.54
2018-02-11T11:36:52.228Z,975.53
2018-02-11T11:37:59.074Z,975.50
2018-02-11T11:39:05.971Z,975.55
2018-02-11T11:40:12.845Z,975.50
2018-02-11T11:41:19.735Z,975.56
2018-02-11T11:42:26.606Z,975.50
2018-02-11T11:43:33.536Z,975.54
2018-02-11T11:44:40.392Z,975.57
2018-02-11T11:45:47.316Z,975.52
2018-02-11T11:46:54.168Z,975.54
2018-02-11T11:48:01.097Z,975.48
2018-02-11T11:49:07.932Z,975.45
2018-02-11T11:50:14.848Z,975.52
2018-02-11T11:51:21.715Z,975.51
2018-02-11T11:52:28.303Z,975.48
2018-02-11T11:53:35.085Z,975.54
2018-02-11T11:54:41.924Z,975.45
2018-02-11T11:55:48.755Z,975.48
2018-02-11T11:56:55.912Z,975.43
2018-02-11T11:58:02.564Z,975.42
2018-02-11T11:59:09.643Z,975.47
2018-02-11T12:00:16.692Z,975.44
2018-02-11T12:01:23.631Z,975.50
2018-02-11T12:02:30.415Z,975.43
2018-02-11T12:03:37.260Z,975.42
2018-02-11T12:04:44.195Z,975.52
2018-02-11T12:05:51.164Z,975.50
2018-02-11T12:06:58.136Z,975.51
2018-02-11T12:08:05.112Z,975.46
2018-02-11T12:09:11.963Z,975.50
2018-02-11T12:10:18.878Z,975.49
2018-02-11T12:11:25.647Z,975.49
2018-02-11T12:12:32.418Z,975.45
2018-02-11T12:13:39.143Z,975.50
2018-02-11T12:14:46.011Z,975.48
2018-02-11T12:15:52.759Z,975.47
2018-02-11T12:16:59.533Z,975.38
2018-02-11T12:18:06.368Z,975.45
2018-02-11T12:19:13.120Z,975.47
2018-02-11T12:20:19.831Z,975.44
2018-02-11T12:21:26.601Z,975.44
2018-02-11T12:22:33.458Z,975.36
2018-02-11T12:23:40.199Z,975.50
2018-02-11T12:24:46.939Z,975.43
2018-02-11T12:25:53.661Z,975.44
2018-02-11T12:27:00.509Z,975.49
2018-02-11T12:28:07.240Z,975.41
2018-02-11T12:29:13.965Z,975.40
2018-02-11T12:30:20.721Z,975.38
2018-02-11T12:31:27.560Z,975.37
2018-02-11T12:32:34.612Z,975.35
2018-02-11T12:33:41.372Z,975.44
2018-02-11T12:34:48.111Z,975.36
2018-02-11T12:35:54.844Z,975.37
2018-02-11T12:37:01.672Z,975.37
2018-02-11T12:38:08.432Z,975.32
2018-02-11T12:39:15.163Z,975.34
2018-02-11T12:40:21.929Z,975.29
2018-02-11T12:41:28.689Z,975.38
2018-02-11T12:42:35.525Z,975.31
2018-02-11T12:43:42.295Z,975.30
2018-02-11T12:44:49.090Z,975.31
2018-02-11T12:45:55.951Z,975.22
2018-02-11T12:47:02.691Z,975.27
2018-02-11T12:48:09.427Z,975.31
2018-02-11T12:49:16.225Z,975.29
2018-02-11T12:50:22.996Z,975.31
2018-02-11T12:51:29.730Z,975.30
2018-02-11T12:52:36.512Z,975.34
2018-02-11T12:53:43.348Z,975.36
2018-02-11T12:54:50.119Z,975.28
2018-02-11T12:55:56.955Z,975.34
2018-02-11T12:57:03.777Z,975.36
2018-02-11T12:58:10.503Z,975.31
2018-02-11T12:59:17.276Z,975.37
2018-02-11T13:00:24.027Z,975.27
2018-02-11T13:01:30.811Z,975.30
2018-02-11T13:02:37.552Z,975.36
2018-02-11T13:03:44.317Z,975.27
2018-02-11T13:04:51.059Z,975.33
2018-02-11T13:05:57.823Z,975.25
2018-02-11T13:07:04.668Z,975.33
2018-02-11T13:08:11.441Z,975.34
2018-02-11T13:09:18.223Z,975.30
2018-02-11T13:10:24.981Z,975.23
2018-02-11T13:11:31.728Z,975.31
2018-02-11T13:12:38.454Z,975.27
2018-02-11T13:13:45.245Z,975.35
2018-02-11T13:14:52.040Z,975.29
2018-02-11T13:15:58.779Z,975.28
2018-02-11T13:17:05.619Z,975.24
2018-02-11T13:18:12.380Z,975.25
2018-02-11T13:19:19.203Z,975.24
2018-02-11T13:20:26.054Z,975.26
2018-02-11T13:21:32.884Z,975.21
2018-02-11T13:22:39.604Z,975.19
2018-02-11T13:23:46.436Z,975.25
2018-02-11T13:24:53.199Z,975.16
2018-02-11T13:26:00.076Z,975.17
2018-02-11T13:27:06.845Z,975.11
2018-02-11T13:28:13.617Z,975.15
2018-02-11T13:29:20.319Z,975.11
2018-02-11T13:30:27.154Z,975.14
2018-02-11T13:31:34.025Z,975.18
2018-02-11T13:32:40.728Z,975.14
2018-02-11T13:33:47.459Z,975.20
2018-02-11T13:34:54.162Z,975.19
2018-02-11T13:36:00.984Z,975.14
2018-02-11T13:37:08.098Z,975.16
2018-02-11T13:38:14.855Z,975.16
2018-02-11T13:39:21.587Z,975.10
2018-02-11T13:40:28.394Z,975.12
2018-02-11T13:41:35.179Z,975.15
2018-02-11T13:42:41.882Z,975.21
2018-02-11T13:43:48.612Z,975.26
2018-02-11T13:44:55.431Z,975.20
2018-02-11T13:46:02.239Z,975.20
2018-02-11T13:47:09.018Z,975.22
2018-02-11T13:48:15.784Z,975.22
2018-02-11T13:49:22.608Z,975.26
2018-02-11T13:50:29.447Z,975.30
2018-02-11T13:51:36.203Z,975.32
2018-02-11T13:52:42.995Z,975.34
2018-02-11T13:53:49.815Z,975.32